Time;durP1;ratioP1;P1;durP2;ratioP2;P2;SDS_P1;SDS_P2;PMS_P1;PMS_P2;Temp;Humidity;BMP_temperature;BMP_pressure;BME280_temperature;BME280_humidity;BME280_pressure;Samples;Min_cycle;Max_cycle;Signal;HPM_P1;HPM_P2
2022/08/04 00:08:27;;;;;;;9.30;3.60;;;;;;;23.05;83.41;99987.59;20816390;28;20052;-68
2022/08/04 00:18:28;;;;;;;7.70;3.33;;;;;;;23.34;78.74;99984.56;20817481;28;20121;-68
2022/08/04 00:28:29;;;;;;;6.75;3.53;;;;;;;23.33;77.93;99991.69;20815917;28;20103;-69
2022/08/04 00:38:31;;;;;;;6.75;3.42;;;;;;;22.96;83.16;99997.13;20814198;28;20050;-68
2022/08/04 00:48:32;;;;;;;6.85;3.67;;;;;;;22.85;85.50;99994.34;20813868;28;20049;-69
2022/08/04 00:58:33;;;;;;;5.95;3.13;;;;;;;22.65;87.25;100000.28;20814241;28;20057;-69
2022/08/04 01:08:35;;;;;;;4.95;3.20;;;;;;;22.36;92.30;100002.38;20812501;28;20057;-67
2022/08/04 01:18:36;;;;;;;5.32;3.15;;;;;;;22.13;93.63;100001.31;20812137;28;20052;-67
2022/08/04 01:28:37;;;;;;;6.63;3.60;;;;;;;21.98;95.73;100000.53;20811048;28;20052;-67
2022/08/04 01:38:43;;;;;;;6.43;3.85;;;;;;;21.80;96.13;99994.69;20808926;28;20050;-68
2022/08/04 01:48:44;;;;;;;6.10;3.40;;;;;;;21.68;96.81;100001.69;20809463;28;20513;-68
2022/08/04 01:58:46;;;;;;;8.63;3.30;;;;;;;21.44;99.20;99988.22;20810592;28;20049;-68
2022/08/04 02:08:47;;;;;;;6.20;3.63;;;;;;;21.49;98.65;99995.91;20807869;28;20049;-68
2022/08/04 02:18:49;;;;;;;6.43;3.80;;;;;;;21.53;98.16;99989.41;20807436;28;20108;-69
2022/08/04 02:28:50;;;;;;;6.70;4.07;;;;;;;21.38;100.00;99990.47;20806830;28;20053;-69
2022/08/04 02:38:51;;;;;;;8.65;3.83;;;;;;;21.32;100.00;99985.53;20805973;28;20045;-68
2022/08/04 02:48:53;;;;;;;6.82;4.20;;;;;;;21.16;100.00;99986.50;20804129;28;20138;-67
2022/08/04 02:58:54;;;;;;;6.15;3.42;;;;;;;21.20;100.00;99984.50;20804712;28;20061;-68
2022/08/04 03:08:55;;;;;;;7.38;4.00;;;;;;;21.13;100.00;99981.41;20804655;28;20092;-67
2022/08/04 03:18:57;;;;;;;8.25;4.05;;;;;;;20.86;100.00;99988.53;20805667;28;20048;-67
2022/08/04 03:28:59;;;;;;;5.30;3.55;;;;;;;20.82;100.00;99992.34;20805012;28;20045;-67
2022/08/04 03:39:00;;;;;;;6.10;3.75;;;;;;;20.72;100.00;99998.25;20803568;28;20473;-67
2022/08/04 03:49:02;;;;;;;6.13;3.90;;;;;;;20.59;100.00;100002.63;20804018;28;20127;-67
2022/08/04 03:59:03;;;;;;;7.55;4.65;;;;;;;20.50;100.00;100008.53;20810892;28;20045;-68
2022/08/04 04:09:04;;;;;;;6.93;3.80;;;;;;;20.44;100.00;100008.91;20817012;28;20049;-68
2022/08/04 04:19:13;;;;;;;6.97;4.30;;;;;;;20.39;100.00;100016.31;20817042;28;20132;-69
2022/08/04 04:29:15;;;;;;;7.75;4.13;;;;;;;20.16;100.00;100018.59;20816852;28;20045;-69
2022/08/04 04:39:16;;;;;;;7.43;4.50;;;;;;;20.35;100.00;100030.75;20814862;28;20057;-69
2022/08/04 04:49:17;;;;;;;6.65;4.00;;;;;;;20.60;100.00;100030.97;20814472;28;20064;-70
2022/08/04 04:59:19;;;;;;;6.43;3.85;;;;;;;21.02;100.00;100037.13;20814290;28;20049;-69
2022/08/04 05:09:20;;;;;;;5.78;3.78;;;;;;;21.30;99.75;100035.34;20812006;28;20060;-70
2022/08/04 05:19:21;;;;;;;6.70;3.80;;;;;;;21.62;98.29;100035.91;20811908;28;20041;-68
2022/08/04 05:29:23;;;;;;;5.47;3.70;;;;;;;22.00;95.57;100047.47;20812172;28;20045;-68
2022/08/04 05:39:31;;;;;;;6.80;4.40;;;;;;;22.46;90.24;100038.09;20810393;28;20079;-67
2022/08/04 05:49:34;;;;;;;6.60;4.63;;;;;;;22.58;92.52;100047.91;20808934;28;20145;-68
2022/08/04 05:59:36;;;;;;;6.38;3.78;;;;;;;22.76;94.54;100043.94;20825008;28;20723;-67
2022/08/04 06:09:37;;;;;;;6.55;4.05;;;;;;;22.98;93.03;100053.06;20809678;28;20512;-66
2022/08/04 06:19:38;;;;;;;6.95;4.15;;;;;;;23.31;89.80;100044.41;20822596;28;20399;-67
2022/08/04 06:30:00;;;;;;;6.28;3.70;;;;;;;23.64;84.85;100053.56;20890458;28;20049;-67
2022/08/04 06:40:01;;;;;;;6.82;3.78;;;;;;;23.87;82.49;100051.81;20889756;28;20493;-67
2022/08/04 06:50:23;;;;;;;7.10;3.65;;;;;;;24.22;80.43;100065.13;20887947;28;20064;-66
2022/08/04 07:00:44;;;;;;;7.60;3.80;;;;;;;24.57;77.53;100059.72;20888373;28;20044;-67
2022/08/04 07:10:45;;;;;;;6.32;4.20;;;;;;;24.84;73.99;100056.66;20887897;28;20563;-67
2022/08/04 07:20:47;;;;;;;6.55;3.95;;;;;;;25.16;73.87;100055.91;20887722;28;20056;-68
2022/08/04 07:30:48;;;;;;;8.60;3.92;;;;;;;25.45;72.40;100058.88;20890721;28;20441;-69
2022/08/04 07:40:50;;;;;;;7.75;4.30;;;;;;;25.88;69.79;100052.59;20902478;28;20052;-68
2022/08/04 07:50:51;;;;;;;8.52;3.65;;;;;;;26.21;65.28;100049.69;20901541;28;20057;-67
2022/08/04 08:00:53;;;;;;;6.57;3.88;;;;;;;26.68;59.63;100060.81;20871785;28;20577;-67
2022/08/04 08:10:55;;;;;;;7.53;3.50;;;;;;;27.21;55.16;100051.66;20860136;28;20049;-68
2022/08/04 08:20:56;;;;;;;5.22;3.10;;;;;;;27.55;53.42;100046.75;20855408;28;20418;-68
2022/08/04 08:30:57;;;;;;;5.32;2.88;;;;;;;28.01;51.88;100040.63;20864845;28;20056;-67
2022/08/04 08:41:00;;;;;;;5.33;3.60;;;;;;;28.57;47.91;100033.53;20854631;28;20066;-68
2022/08/04 08:51:01;;;;;;;6.28;2.92;;;;;;;29.07;46.09;100042.06;20870517;28;20052;-67
2022/08/04 09:01:02;;;;;;;5.00;3.20;;;;;;;29.42;44.53;100039.53;20895612;28;20044;-68
2022/08/04 09:11:04;;;;;;;6.63;3.22;;;;;;;29.85;43.17;100036.94;20896415;28;20048;-66
2022/08/04 09:21:05;;;;;;;5.25;3.17;;;;;;;30.27;41.26;100030.81;20859168;28;20501;-67
2022/08/04 09:31:06;;;;;;;9.80;3.47;;;;;;;30.50;40.67;100032.97;20852153;28;20049;-67
2022/08/04 09:41:08;;;;;;;10.45;3.47;;;;;;;30.85;42.07;100040.91;20847188;28;20383;-68
2022/08/04 09:51:29;;;;;;;6.25;3.40;;;;;;;31.13;42.47;100024.41;20848048;28;20110;-70
2022/08/04 10:01:50;;;;;;;6.85;3.25;;;;;;;31.56;40.57;100023.31;20868399;28;20040;-69
2022/08/04 10:12:00;;;;;;;7.15;3.20;;;;;;;31.83;39.38;100008.63;20890869;28;20052;-70
2022/08/04 10:22:01;;;;;;;3.92;2.78;;;;;;;32.31;39.74;99995.16;20892316;28;20056;-69
2022/08/04 10:32:23;;;;;;;8.27;3.13;;;;;;;32.79;38.40;99988.69;20891706;28;20072;-69
2022/08/04 10:42:24;;;;;;;4.50;2.90;;;;;;;32.91;36.96;99986.44;20816121;28;20044;-69
2022/08/04 10:52:25;;;;;;;6.70;2.83;;;;;;;33.22;35.92;99972.84;20806201;28;20038;-69
2022/08/04 11:02:27;;;;;;;5.93;2.33;;;;;;;33.56;34.63;99963.44;20806055;28;20068;-69
2022/08/04 11:12:28;;;;;;;4.43;2.40;;;;;;;33.59;31.29;99957.66;20899554;28;20064;-69
2022/08/04 11:22:29;;;;;;;4.77;2.13;;;;;;;33.69;28.93;99950.94;20903960;28;20045;-69
2022/08/04 11:32:31;;;;;;;4.43;1.80;;;;;;;34.06;28.90;99954.63;20826213;28;20096;-69
2022/08/04 11:42:32;;;;;;;3.17;2.00;;;;;;;34.16;26.07;99948.91;20819797;28;20524;-69
2022/08/04 11:52:33;;;;;;;6.50;1.70;;;;;;;34.42;25.63;99943.84;20818879;28;20048;-69
2022/08/04 12:02:35;;;;;;;4.87;2.00;;;;;;;34.16;25.98;99935.31;20819984;28;20045;-69
2022/08/04 12:12:36;;;;;;;4.17;1.50;;;;;;;34.28;24.16;99920.25;20817004;28;20053;-70
2022/08/04 12:22:37;;;;;;;2.80;1.30;;;;;;;34.77;24.33;99907.88;20816195;28;20068;-70
2022/08/04 12:32:42;;;;;;;2.30;1.35;;;;;;;34.66;23.67;99895.63;20849371;28;20065;-69
2022/08/04 12:42:48;;;;;;;3.75;1.40;;;;;;;34.61;23.88;99885.31;20867037;28;20051;-68
2022/08/04 12:53:00;;;;;;;6.73;1.77;;;;;;;35.15;23.06;99889.44;20822029;28;20132;-69
2022/08/04 13:03:04;;;;;;;4.65;1.65;;;;;;;35.50;22.95;99881.34;20819724;28;20190;-69
2022/08/04 13:13:09;;;;;;;3.38;1.90;;;;;;;35.37;23.38;99869.31;20818067;28;20056;-69
2022/08/04 13:23:11;;;;;;;4.03;1.60;;;;;;;35.32;22.15;99862.78;20817096;28;20049;-69
2022/08/04 13:33:13;;;;;;;3.03;1.83;;;;;;;35.01;22.86;99854.97;20815442;28;20474;-68
2022/08/04 13:43:14;;;;;;;3.72;1.88;;;;;;;35.52;22.14;99842.00;20815295;28;20050;-68
2022/08/04 13:53:35;;;;;;;2.60;1.60;;;;;;;35.38;22.07;99829.31;20815672;28;20057;-68
2022/08/04 14:03:37;;;;;;;3.60;1.80;;;;;;;35.53;21.71;99813.72;20815708;28;20052;-68
2022/08/04 14:13:54;;;;;;;5.75;1.80;;;;;;;35.77;21.42;99806.94;20815225;28;20049;-69
2022/08/04 14:23:56;;;;;;;6.18;1.58;;;;;;;36.02;21.22;99799.13;20814073;28;20410;-69
2022/08/04 14:33:57;;;;;;;2.25;1.60;;;;;;;35.95;22.62;99785.47;20813775;28;20050;-68
2022/08/04 14:44:05;;;;;;;2.53;1.63;;;;;;;36.30;20.39;99782.63;20811476;28;20528;-69
2022/08/04 14:54:08;;;;;;;3.53;1.65;;;;;;;36.04;20.73;99768.94;20861215;28;20143;-69
2022/08/04 15:04:15;;;;;;;3.15;1.65;;;;;;;36.38;20.26;99766.09;20891014;28;20140;-68
2022/08/04 15:14:17;;;;;;;1.98;1.30;;;;;;;36.23;20.41;99768.16;20865217;28;20049;-69
2022/08/04 15:24:38;;;;;;;5.03;2.10;;;;;;;36.09;21.37;99747.38;20811175;28;20081;-69
2022/08/04 15:34:39;;;;;;;2.95;1.80;;;;;;;36.20;20.89;99746.75;20810297;28;20080;-69
2022/08/04 15:44:40;;;;;;;4.40;1.60;;;;;;;36.33;21.59;99752.25;20808839;28;20057;-67
2022/08/04 15:54:42;;;;;;;;;;;;;;;36.32;20.32;99741.53;20816253;28;20053;-66
2022/08/04 16:04:53;;;;;;;1.92;1.20;;;;;;;36.33;21.13;99730.44;20843161;28;19924;-67
2022/08/04 16:14:57;;;;;;;2.90;1.40;;;;;;;36.28;20.73;99722.03;20867580;28;20057;-67
2022/08/04 16:24:59;;;;;;;;;;;;;;;36.36;19.77;99719.09;20846650;28;20115;-67
2022/08/04 16:35:02;;;;;;;3.00;1.48;;;;;;;36.53;20.57;99707.81;20818212;28;20434;-68
2022/08/04 16:45:04;;;;;;;4.30;1.67;;;;;;;36.37;21.02;99715.34;20898327;28;20063;-68
2022/08/04 16:55:06;;;;;;;;;;;;;;;35.58;22.42;99712.38;20900688;28;20509;-68
2022/08/04 17:05:07;;;;;;;2.40;1.47;;;;;;;35.83;21.90;99713.50;20898304;28;19924;-67
2022/08/04 17:15:08;;;;;;;3.40;2.20;;;;;;;35.43;23.32;99707.03;20851175;28;20556;-67
2022/08/04 17:25:10;;;;;;;3.97;2.00;;;;;;;35.22;23.42;99710.72;20815709;28;20049;-67
2022/08/04 17:35:11;;;;;;;4.90;1.80;;;;;;;34.99;25.51;99699.28;20814346;28;20052;-67
2022/08/04 17:45:14;;;;;;;5.88;2.58;;;;;;;34.96;25.40;99695.88;20816854;28;20143;-67
2022/08/04 17:55:36;;;;;;;3.90;2.30;;;;;;;34.61;27.10;99699.59;20811646;28;20045;-67
2022/08/04 18:05:37;;;;;;;4.20;2.13;;;;;;;33.81;30.12;99708.78;20811371;28;20490;-66
2022/08/04 18:15:58;;;;;;;3.33;1.70;;;;;;;33.12;32.41;99722.66;20832689;28;20053;-66
2022/08/04 18:25:59;;;;;;;3.17;1.90;;;;;;;32.60;33.83;99723.50;20811386;28;20049;-67
2022/08/04 18:36:04;;;;;;;4.00;1.83;;;;;;;32.08;35.11;99724.19;20809529;28;20045;-66
2022/08/04 18:46:25;;;;;;;4.30;2.00;;;;;;;31.58;36.90;99723.59;20809969;28;20512;-66
2022/08/04 18:56:27;;;;;;;3.67;2.00;;;;;;;31.18;38.35;99728.09;20808518;28;20053;-66
2022/08/04 19:06:32;;;;;;;5.25;1.95;;;;;;;30.63;39.30;99733.41;20806368;28;20053;-66
2022/08/04 19:16:33;;;;;;;3.58;2.05;;;;;;;30.31;40.89;99755.84;20866428;28;20128;-66
2022/08/04 19:26:35;;;;;;;3.80;2.08;;;;;;;30.02;42.07;99761.66;20891883;28;20065;-66
2022/08/04 19:36:36;;;;;;;4.80;2.80;;;;;;;29.87;42.89;99764.16;20905408;28;20049;-66
2022/08/04 19:46:38;;;;;;;4.25;2.70;;;;;;;29.58;43.89;99773.50;20904786;28;20424;-66
2022/08/04 19:56:39;;;;;;;4.03;2.53;;;;;;;29.16;46.10;99777.94;20904515;28;20049;-66
2022/08/04 20:06:41;;;;;;;3.80;2.70;;;;;;;28.91;46.76;99780.44;20903036;28;20179;-66
2022/08/04 20:16:43;;;;;;;6.63;2.80;;;;;;;28.59;47.29;99786.38;20841572;28;20088;-68
2022/08/04 20:26:46;;;;;;;5.80;2.63;;;;;;;28.47;48.08;99795.72;20819416;28;20144;-66
2022/08/04 20:36:49;;;;;;;;;;;;;;;28.52;49.17;99812.28;20818775;28;20049;-66
2022/08/04 20:46:51;;;;;;;5.07;2.80;;;;;;;28.55;49.01;99804.69;20818005;28;19921;-66
2022/08/04 20:56:52;;;;;;;6.18;3.03;;;;;;;28.54;47.57;99797.63;20817602;28;20990;-67
2022/08/04 21:06:54;;;;;;;5.90;2.95;;;;;;;28.63;48.19;99783.22;20814342;28;20481;-68
2022/08/04 21:16:57;;;;;;;;;;;;;;;28.46;49.87;99800.28;20843907;28;20049;-67
2022/08/04 21:27:00;;;;;;;5.35;3.00;;;;;;;28.40;50.60;99805.41;20811739;28;19924;-67
2022/08/04 21:37:01;;;;;;;;;;;;;;;28.28;49.64;99802.91;20813828;28;20052;-67
2022/08/04 21:47:03;;;;;;;4.43;2.60;;;;;;;28.21;49.03;99807.19;20813343;28;19928;-66
2022/08/04 21:57:14;;;;;;;4.72;2.83;;;;;;;28.00;48.91;99803.94;20812355;28;20476;-66
2022/08/04 22:07:15;;;;;;;6.30;2.90;;;;;;;27.98;49.62;99827.44;20878837;28;20049;-67
2022/08/04 22:17:17;;;;;;;5.32;2.92;;;;;;;27.45;50.93;99841.50;20896378;28;20413;-67
2022/08/04 22:37:39;;;;;;;4.68;2.80;;;;;;;27.26;53.88;99824.47;20894958;28;20135;-67
2022/08/04 22:48:00;;;;;;;5.05;2.80;;;;;;;27.12;54.70;99830.28;20895726;28;20049;-66
2022/08/04 22:58:01;;;;;;;4.78;3.00;;;;;;;26.86;55.21;99836.19;20892725;28;20064;-67
2022/08/04 23:08:09;;;;;;;7.22;3.00;;;;;;;26.91;52.44;99837.63;20908775;28;20486;-66
2022/08/04 23:18:12;;;;;;;7.07;3.20;;;;;;;26.68;54.88;99847.78;20910251;28;20045;-67
2022/08/04 23:28:15;;;;;;;5.77;3.07;;;;;;;26.26;57.06;99859.59;20910445;28;20053;-67
2022/08/04 23:38:16;;;;;;;6.43;2.70;;;;;;;26.60;51.57;99886.94;20908038;28;20049;-67
2022/08/04 23:48:32;;;;;;;6.20;2.58;;;;;;;26.73;50.33;99893.88;20908418;28;20060;-67
2022/08/04 23:58:35;;;;;;;5.22;2.55;;;;;;;26.96;46.92;99894.47;20906875;28;20493;-67
